createdAt,value
2023-05-02T00:03:17.758Z,99.90
2023-05-02T00:06:59.735Z,99.90
2023-05-02T00:10:41.661Z,99.90
2023-05-02T00:14:24.609Z,99.90
2023-05-02T00:18:06.520Z,99.90
2023-05-02T00:21:49.307Z,99.90
2023-05-02T00:25:31.242Z,99.90
2023-05-02T00:29:13.156Z,99.90
2023-05-02T00:32:55.186Z,99.90
2023-05-02T00:36:39.902Z,99.90
2023-05-02T00:40:22.285Z,99.90
2023-05-02T00:44:04.241Z,99.90
2023-05-02T00:47:46.270Z,99.90
2023-05-02T00:51:28.988Z,99.90
2023-05-02T00:55:10.914Z,99.90
2023-05-02T00:58:53.768Z,99.90
2023-05-02T01:02:51.176Z,99.90
2023-05-02T01:06:42.385Z,99.90
2023-05-02T01:10:38.180Z,99.90
2023-05-02T01:14:22.280Z,99.90
2023-05-02T01:18:06.591Z,99.90
2023-05-02T01:21:49.588Z,99.90
2023-05-02T01:26:10.115Z,99.90
2023-05-02T01:29:53.679Z,99.90
2023-05-02T01:33:36.787Z,99.90
2023-05-02T01:37:19.041Z,99.90
2023-05-02T01:41:05.431Z,99.90
2023-05-02T01:44:48.740Z,99.90
2023-05-02T01:48:31.540Z,99.90
2023-05-02T01:52:15.712Z,99.90
2023-05-02T01:56:00.049Z,99.90
2023-05-02T01:59:44.652Z,99.90
2023-05-02T02:03:28.641Z,99.90
2023-05-02T02:07:13.565Z,99.90
2023-05-02T02:11:01.609Z,99.90
2023-05-02T02:14:50.019Z,99.90
2023-05-02T02:18:37.875Z,99.90
2023-05-02T02:22:21.508Z,99.90
2023-05-02T02:26:05.263Z,99.90
2023-05-02T02:29:47.200Z,99.90
2023-05-02T02:33:31.294Z,99.90
2023-05-02T02:37:16.139Z,99.90
2023-05-02T02:41:06.252Z,99.90
2023-05-02T02:45:02.069Z,99.90
2023-05-02T02:48:53.750Z,99.90
2023-05-02T02:53:00.534Z,99.90
2023-05-02T02:56:46.819Z,99.90
2023-05-02T03:00:29.750Z,99.90
2023-05-02T03:04:13.560Z,99.90
2023-05-02T03:07:55.893Z,99.90
2023-05-02T03:11:37.832Z,99.90
2023-05-02T03:15:52.505Z,99.90
2023-05-02T03:19:35.093Z,99.90
2023-05-02T03:23:16.972Z,99.90
2023-05-02T03:26:59.457Z,99.90
2023-05-02T03:30:42.013Z,99.90
2023-05-02T03:34:24.006Z,99.90
2023-05-02T03:38:05.932Z,99.90
2023-05-02T03:41:47.827Z,99.90
2023-05-02T03:45:29.737Z,99.90
2023-05-02T03:49:12.111Z,99.90
2023-05-02T03:52:54.088Z,99.90
2023-05-02T03:56:36.634Z,99.90
2023-05-02T04:00:18.655Z,99.90
2023-05-02T04:04:00.723Z,99.90
2023-05-02T04:07:42.851Z,99.90
2023-05-02T04:11:26.268Z,99.90
2023-05-02T04:15:08.875Z,99.90
2023-05-02T04:18:50.782Z,99.90
2023-05-02T04:22:33.327Z,99.90
2023-05-02T04:26:17.058Z,99.90
2023-05-02T04:29:59.127Z,99.90
2023-05-02T04:33:41.236Z,99.90
2023-05-02T04:37:23.207Z,99.90
2023-05-02T04:41:08.624Z,99.90
2023-05-02T04:44:51.727Z,99.90
2023-05-02T04:48:33.754Z,99.90
2023-05-02T04:52:15.815Z,99.90
2023-05-02T04:55:57.967Z,99.90
2023-05-02T04:59:39.895Z,99.90
2023-05-02T05:03:22.160Z,99.90
2023-05-02T05:07:04.506Z,99.90
2023-05-02T05:10:46.434Z,99.90
2023-05-02T05:14:28.649Z,99.90
2023-05-02T05:18:10.677Z,99.90
2023-05-02T05:21:52.687Z,99.90
2023-05-02T05:25:34.640Z,99.90
2023-05-02T05:29:18.272Z,99.90
2023-05-02T05:33:00.453Z,99.90
2023-05-02T05:36:42.862Z,99.90
2023-05-02T05:40:24.802Z,99.90
2023-05-02T05:44:06.707Z,99.90
2023-05-02T05:47:48.673Z,99.90
2023-05-02T05:51:31.544Z,99.90
2023-05-02T05:55:13.527Z,99.90
2023-05-02T05:58:55.445Z,99.90
2023-05-02T06:02:37.465Z,99.90
2023-05-02T06:06:19.418Z,99.90
2023-05-02T06:10:01.557Z,99.90
2023-05-02T06:13:43.685Z,99.90
2023-05-02T06:17:26.861Z,99.90
2023-05-02T06:21:08.890Z,99.90
2023-05-02T06:24:50.904Z,99.90
2023-05-02T06:28:32.959Z,99.90
2023-05-02T06:32:14.881Z,99.90
2023-05-02T06:35:59.127Z,99.90
2023-05-02T06:39:41.858Z,99.90
2023-05-02T06:43:23.789Z,99.90
2023-05-02T06:47:06.888Z,99.90
2023-05-02T06:50:49.789Z,99.90
2023-05-02T06:54:31.694Z,99.90
2023-05-02T06:58:13.624Z,99.90
2023-05-02T07:01:55.604Z,99.90
2023-05-02T07:05:37.506Z,99.90
2023-05-02T07:09:19.576Z,99.90
2023-05-02T07:13:01.442Z,99.90
2023-05-02T07:16:43.456Z,99.90
2023-05-02T07:20:25.653Z,99.90
2023-05-02T07:24:07.619Z,99.90
2023-05-02T07:27:49.552Z,99.90
2023-05-02T07:31:31.525Z,99.90
2023-05-02T07:35:13.876Z,99.90
2023-05-02T07:38:55.780Z,99.90
2023-05-02T07:42:37.669Z,99.90
2023-05-02T07:46:19.588Z,99.90
2023-05-02T07:50:02.133Z,99.90
2023-05-02T07:53:44.887Z,99.90
2023-05-02T07:57:27.067Z,99.90
2023-05-02T08:01:09.927Z,99.90
2023-05-02T08:04:52.551Z,99.90
2023-05-02T08:08:34.526Z,99.90
2023-05-02T08:12:16.437Z,99.90
2023-05-02T08:15:58.557Z,99.90
2023-05-02T08:19:40.584Z,99.90
2023-05-02T08:23:22.458Z,99.90
2023-05-02T08:27:04.394Z,99.90
2023-05-02T08:30:46.403Z,99.90
2023-05-02T08:34:28.388Z,99.90
2023-05-02T08:38:10.313Z,99.90
2023-05-02T08:41:52.346Z,99.90
2023-05-02T08:45:41.122Z,99.90
2023-05-02T08:49:25.567Z,99.90
2023-05-02T08:53:09.747Z,99.90
2023-05-02T08:56:55.289Z,99.90
2023-05-02T09:00:41.894Z,99.90
2023-05-02T09:04:27.629Z,99.90
2023-05-02T09:08:09.629Z,99.90
2023-05-02T09:11:52.812Z,99.90
2023-05-02T09:15:34.886Z,99.90
2023-05-02T09:19:26.621Z,99.90
2023-05-02T09:23:08.932Z,99.90
2023-05-02T09:27:04.659Z,99.90
2023-05-02T09:30:47.069Z,99.90
2023-05-02T09:34:28.999Z,99.90
2023-05-02T09:38:21.130Z,99.90
2023-05-02T09:42:03.701Z,99.90
2023-05-02T09:46:04.261Z,99.90
2023-05-02T09:49:46.953Z,99.90
2023-05-02T09:53:29.038Z,99.90
2023-05-02T09:57:11.491Z,99.90
2023-05-02T10:00:53.540Z,99.90
2023-05-02T10:04:36.354Z,99.90
2023-05-02T10:08:19.689Z,99.90
2023-05-02T10:12:08.267Z,99.90
2023-05-02T10:15:56.393Z,99.90
2023-05-02T10:19:39.676Z,99.90
2023-05-02T10:23:22.370Z,99.90
2023-05-02T10:27:05.624Z,99.90
2023-05-02T10:30:49.975Z,99.90
2023-05-02T10:34:34.053Z,99.90
2023-05-02T10:38:21.079Z,99.90
2023-05-02T10:42:06.164Z,99.90
2023-05-02T10:45:48.511Z,99.90
2023-05-02T10:49:30.685Z,99.90
2023-05-02T10:53:32.481Z,99.90
2023-05-02T10:57:14.500Z,99.90
2023-05-02T11:01:28.719Z,99.90
2023-05-02T11:05:10.970Z,99.90
2023-05-02T11:08:53.115Z,99.90
2023-05-02T11:12:48.663Z,99.90
2023-05-02T11:16:59.869Z,99.90
2023-05-02T11:20:45.907Z,99.90
2023-05-02T11:24:50.301Z,99.90
2023-05-02T11:28:37.998Z,99.90
2023-05-02T11:32:19.977Z,99.90
2023-05-02T11:36:02.179Z,99.90
2023-05-02T11:39:44.301Z,99.90
2023-05-02T11:43:30.121Z,99.90
2023-05-02T11:47:13.424Z,99.90
2023-05-02T11:50:59.053Z,99.90
2023-05-02T11:54:41.140Z,99.90
2023-05-02T11:58:25.060Z,99.90
2023-05-02T12:02:07.480Z,99.90
2023-05-02T12:05:49.797Z,99.90
2023-05-02T12:09:32.061Z,99.90
2023-05-02T12:13:14.591Z,99.90
2023-05-02T12:16:58.290Z,99.90
2023-05-02T12:20:40.745Z,99.90
2023-05-02T12:24:22.770Z,99.90
2023-05-02T12:28:04.928Z,99.90
2023-05-02T12:31:55.949Z,99.90
2023-05-02T12:35:38.052Z,99.90
2023-05-02T12:39:38.182Z,99.90
2023-05-02T12:43:22.027Z,99.90
2023-05-02T12:47:04.221Z,99.90
2023-05-02T12:50:46.814Z,99.90
2023-05-02T12:54:28.688Z,99.90
2023-05-02T12:58:15.522Z,99.90
2023-05-02T13:01:58.260Z,99.90
2023-05-02T13:05:40.221Z,99.90
2023-05-02T13:09:22.100Z,99.90
2023-05-02T13:13:04.065Z,99.90
2023-05-02T13:16:46.016Z,99.90
2023-05-02T13:20:27.977Z,99.90
2023-05-02T13:24:09.907Z,99.90
2023-05-02T13:27:51.816Z,99.00
2023-05-02T13:31:33.753Z,99.40
2023-05-02T13:35:16.024Z,99.60
2023-05-02T13:38:57.944Z,98.90
2023-05-02T13:42:39.981Z,98.20
2023-05-02T13:46:22.001Z,98.20
2023-05-02T13:50:04.219Z,97.30
2023-05-02T13:53:46.583Z,97.50
2023-05-02T13:57:28.478Z,97.60
2023-05-02T14:01:10.453Z,98.40
2023-05-02T14:04:52.523Z,97.60
2023-05-02T14:08:34.461Z,97.30
2023-05-02T14:12:16.364Z,97.10
2023-05-02T14:15:58.949Z,98.30
2023-05-02T14:19:40.971Z,99.00
2023-05-02T14:23:22.863Z,97.60
2023-05-02T14:27:06.921Z,97.80
2023-05-02T14:30:49.834Z,97.60
2023-05-02T14:34:31.842Z,97.70
2023-05-02T14:38:13.728Z,97.30
2023-05-02T14:41:55.614Z,97.80
2023-05-02T14:45:37.694Z,97.00
2023-05-02T14:49:19.579Z,97.10
2023-05-02T14:53:01.495Z,97.70
2023-05-02T14:56:43.843Z,97.50
2023-05-02T15:00:25.929Z,97.30
2023-05-02T15:04:08.507Z,97.30
2023-05-02T15:07:50.856Z,98.10
2023-05-02T15:11:33.032Z,97.00
2023-05-02T15:15:40.544Z,96.60
2023-05-02T15:19:25.401Z,98.10
2023-05-02T15:23:07.293Z,96.80
2023-05-02T15:26:49.315Z,96.60
2023-05-02T15:30:31.895Z,97.90
2023-05-02T15:34:14.126Z,98.30
2023-05-02T15:37:56.313Z,98.80
2023-05-02T15:41:38.348Z,97.20
2023-05-02T15:45:20.470Z,97.70
2023-05-02T15:49:02.480Z,97.20
2023-05-02T15:52:44.356Z,96.90
2023-05-02T15:56:26.347Z,97.40
2023-05-02T16:00:11.393Z,98.30
2023-05-02T16:03:53.372Z,98.80
2023-05-02T16:07:35.327Z,98.70
2023-05-02T16:11:17.222Z,99.20
2023-05-02T16:14:59.512Z,99.00
2023-05-02T16:18:42.251Z,99.80
2023-05-02T16:22:24.326Z,99.90
2023-05-02T16:26:06.332Z,99.90
2023-05-02T16:29:48.589Z,99.90
2023-05-02T16:33:30.599Z,99.90
2023-05-02T16:37:12.574Z,99.90
2023-05-02T16:40:54.476Z,99.90
2023-05-02T16:44:36.380Z,99.90
2023-05-02T16:48:18.314Z,99.60
2023-05-02T16:52:00.245Z,99.90
2023-05-02T16:55:42.133Z,99.90
2023-05-02T16:59:24.010Z,99.90
2023-05-02T17:03:06.375Z,99.90
2023-05-02T17:06:48.502Z,99.90
2023-05-02T17:10:30.613Z,99.90
2023-05-02T17:14:13.824Z,99.90
2023-05-02T17:17:55.862Z,99.90
2023-05-02T17:21:38.159Z,99.90
2023-05-02T17:25:20.125Z,99.90
2023-05-02T17:29:02.108Z,99.90
2023-05-02T17:32:44.650Z,99.90
2023-05-02T17:36:26.674Z,99.90
2023-05-02T17:40:09.031Z,99.90
2023-05-02T17:43:50.909Z,99.90
2023-05-02T17:47:32.855Z,99.90
2023-05-02T17:51:14.803Z,99.90
2023-05-02T17:54:56.712Z,99.90
2023-05-02T17:58:38.640Z,99.90
2023-05-02T18:02:22.438Z,99.90
2023-05-02T18:06:04.657Z,99.90
2023-05-02T18:09:46.581Z,99.90
2023-05-02T18:13:28.486Z,99.90
2023-05-02T18:17:10.502Z,99.90
2023-05-02T18:20:52.455Z,99.90
2023-05-02T18:24:35.625Z,99.90
2023-05-02T18:28:17.558Z,99.90
2023-05-02T18:31:59.508Z,99.90
2023-05-02T18:35:50.906Z,99.90
2023-05-02T18:39:33.980Z,99.90
2023-05-02T18:43:15.891Z,99.90
2023-05-02T18:46:58.501Z,99.90
2023-05-02T18:50:40.437Z,99.90
2023-05-02T18:54:26.496Z,99.90
2023-05-02T18:58:08.437Z,99.90
2023-05-02T19:01:50.398Z,99.90
2023-05-02T19:05:34.741Z,99.90
2023-05-02T19:09:18.284Z,99.90
2023-05-02T19:13:01.039Z,99.90
2023-05-02T19:16:42.984Z,99.90
2023-05-02T19:20:24.929Z,99.90
2023-05-02T19:24:07.018Z,99.90
2023-05-02T19:27:49.895Z,99.90
2023-05-02T19:31:31.836Z,99.90
2023-05-02T19:35:13.832Z,99.90
2023-05-02T19:38:58.158Z,99.90
2023-05-02T19:42:40.367Z,99.90
2023-05-02T19:46:22.414Z,99.90
2023-05-02T19:50:04.938Z,99.90
2023-05-02T19:53:46.872Z,99.90
2023-05-02T19:57:28.794Z,99.90
2023-05-02T20:01:11.129Z,99.90
2023-05-02T20:04:53.122Z,99.90
2023-05-02T20:08:35.126Z,99.90
2023-05-02T20:12:17.076Z,99.90
2023-05-02T20:15:58.955Z,99.90
2023-05-02T20:19:40.851Z,99.90
2023-05-02T20:23:22.734Z,99.90
2023-05-02T20:27:04.711Z,99.90
2023-05-02T20:30:46.737Z,99.90
2023-05-02T20:34:28.753Z,99.90
2023-05-02T20:38:11.235Z,99.90
2023-05-02T20:41:53.126Z,99.90
2023-05-02T20:45:35.212Z,99.90
2023-05-02T20:49:17.316Z,99.90
2023-05-02T20:52:59.445Z,99.90
2023-05-02T20:56:41.384Z,99.90
2023-05-02T21:00:23.357Z,99.90
2023-05-02T21:04:05.541Z,99.90
2023-05-02T21:07:47.468Z,99.90
2023-05-02T21:11:29.750Z,99.90
2023-05-02T21:15:14.350Z,99.90
2023-05-02T21:18:56.243Z,99.90
2023-05-02T21:22:38.126Z,99.90
2023-05-02T21:26:20.070Z,99.90
2023-05-02T21:30:02.163Z,99.90
2023-05-02T21:33:44.644Z,99.90
2023-05-02T21:37:26.635Z,99.90
2023-05-02T21:41:09.040Z,99.90
2023-05-02T21:44:50.965Z,99.90
2023-05-02T21:48:34.156Z,99.90
2023-05-02T21:52:16.039Z,99.90
2023-05-02T21:55:57.957Z,99.90
2023-05-02T21:59:39.844Z,99.90
2023-05-02T22:03:26.055Z,99.90
2023-05-02T22:07:07.983Z,99.90
2023-05-02T22:10:49.936Z,99.90
2023-05-02T22:14:41.697Z,99.90
2023-05-02T22:18:26.804Z,99.90
2023-05-02T22:22:08.806Z,99.90
2023-05-02T22:25:50.710Z,99.90
2023-05-02T22:29:32.593Z,99.90
2023-05-02T22:33:14.518Z,99.90
2023-05-02T22:36:56.435Z,99.90
2023-05-02T22:40:38.390Z,99.90
2023-05-02T22:44:20.336Z,99.90
2023-05-02T22:48:02.456Z,99.90
2023-05-02T22:51:45.480Z,99.90
2023-05-02T22:55:27.449Z,99.90
2023-05-02T22:59:10.058Z,99.90
2023-05-02T23:02:52.077Z,99.90
2023-05-02T23:06:34.048Z,99.90
2023-05-02T23:10:16.358Z,99.90
2023-05-02T23:13:58.272Z,99.90
2023-05-02T23:17:43.611Z,99.90
2023-05-02T23:21:25.605Z,99.90
2023-05-02T23:25:08.820Z,99.90
2023-05-02T23:28:50.769Z,99.90
2023-05-02T23:32:33.297Z,99.90
2023-05-02T23:36:15.352Z,99.90
2023-05-02T23:39:58.212Z,99.90
2023-05-02T23:43:40.111Z,99.90
2023-05-02T23:47:22.947Z,99.90
2023-05-02T23:51:05.053Z,99.90
2023-05-02T23:54:47.123Z,99.90
2023-05-02T23:58:29.006Z,99.90
